Time;durP1;ratioP1;P1;durP2;ratioP2;P2;SDS_P1;SDS_P2;PMS_P1;PMS_P2;Temp;Humidity;BMP_temperature;BMP_pressure;BME280_temperature;BME280_humidity;BME280_pressure;Samples;Min_cycle;Max_cycle;Signal;HPM_P1;HPM_P2
2022/03/16 00:02:23;;;;;;;;;;;;;;;8.15;60.03;101344.91;6110348;23;6938;-76
2022/03/16 00:04:52;;;;;;;;;;;;;;;8.16;59.38;101350.88;6111693;23;6869;-76
2022/03/16 00:07:18;;;;;;;;;;;;;;;8.16;60.39;101350.88;6087105;23;7392;-76
2022/03/16 00:09:45;;;;;;;;;;;;;;;8.17;59.81;101350.13;6113121;23;7135;-76
2022/03/16 00:12:11;;;;;;;;;;;;;;;8.16;60.07;101346.69;6109781;23;6946;-76
2022/03/16 00:14:38;;;;;;;;;;;;;;;8.16;59.34;101344.13;6134793;23;7085;-76
2022/03/16 00:17:04;;;;;;;;;;;;;;;8.16;59.51;101346.69;6110378;23;6967;-76
2022/03/16 00:19:31;;;;;;;;;;;;;;;8.15;59.99;101350.00;6112267;23;6958;-76
2022/03/16 00:21:59;;;;;;;;;;;;;;;8.13;59.47;101356.69;6137130;23;7041;-76
2022/03/16 00:24:25;;;;;;;;;;;;;;;8.11;59.24;101348.03;6086214;23;6938;-76
2022/03/16 00:26:51;;;;;;;;;;;;;;;8.11;59.04;101350.59;6112677;23;7998;-76
2022/03/16 00:29:16;;;;;;;;;;;;;;;8.08;59.17;101347.78;6112901;23;6858;-76
2022/03/16 00:31:42;;;;;;;;;;;;;;;8.06;59.35;101344.22;6110059;23;7306;-76
2022/03/16 00:34:07;;;;;;;;;;;;;;;8.06;58.99;101349.34;6112038;23;6802;-76
2022/03/16 00:36:33;;;;;;;;;;;;;;;8.04;59.75;101340.69;6112075;23;6811;-76
2022/03/16 00:38:59;;;;;;;;;;;;;;;8.03;59.67;101337.22;6110854;23;6865;-76
2022/03/16 00:41:25;;;;;;;;;;;;;;;8.02;59.74;101332.03;6109928;23;6767;-76
2022/03/16 00:43:51;;;;;;;;;;;;;;;8.01;59.42;101330.22;6111388;23;6987;-76
2022/03/16 00:46:16;;;;;;;;;;;;;;;8.00;60.20;101325.91;6111041;23;8145;-75
2022/03/16 00:48:42;;;;;;;;;;;;;;;7.97;59.95;101331.69;6087149;23;6986;-75
2022/03/16 00:51:10;;;;;;;;;;;;;;;7.95;60.28;101334.91;6110960;23;7023;-75
2022/03/16 00:53:35;;;;;;;;;;;;;;;7.91;59.54;101329.56;6112605;23;6928;-76
2022/03/16 00:56:02;;;;;;;;;;;;;;;7.91;59.72;101331.22;6111282;23;8154;-76
2022/03/16 00:58:28;;;;;;;;;;;;;;;7.89;59.96;101336.22;6111480;23;7241;-76
2022/03/16 01:00:55;;;;;;;;;;;;;;;7.88;59.86;101323.34;6109785;23;6866;-76
2022/03/16 01:03:21;;;;;;;;;;;;;;;7.88;59.66;101329.34;6085485;23;7014;-76
2022/03/16 01:05:46;;;;;;;;;;;;;;;7.88;60.40;101331.88;6108981;23;7156;-76
2022/03/16 01:08:13;;;;;;;;;;;;;;;7.88;60.14;101321.69;6112865;23;6779;-76
2022/03/16 01:10:40;;;;;;;;;;;;;;;7.86;59.92;101323.25;6086495;23;7047;-76
2022/03/16 01:13:07;;;;;;;;;;;;;;;7.86;60.15;101319.78;6110058;23;6937;-76
2022/03/16 01:15:33;;;;;;;;;;;;;;;7.85;59.69;101312.91;6110561;23;6946;-76
2022/03/16 01:17:58;;;;;;;;;;;;;;;7.82;60.41;101312.69;6087728;23;8324;-76
2022/03/16 01:20:24;;;;;;;;;;;;;;;7.82;59.57;101302.47;6135332;23;7025;-76
2022/03/16 01:22:50;;;;;;;;;;;;;;;7.81;59.66;101306.69;6108659;23;6798;-76
2022/03/16 01:25:16;;;;;;;;;;;;;;;7.82;59.75;101313.56;6112603;23;6788;-76
2022/03/16 01:27:41;;;;;;;;;;;;;;;7.82;60.21;101311.00;6109872;23;7179;-76
2022/03/16 01:30:08;;;;;;;;;;;;;;;7.84;60.17;101309.47;6110306;23;6775;-76
2022/03/16 01:32:34;;;;;;;;;;;;;;;7.84;60.24;101311.13;6112128;23;6860;-76
2022/03/16 01:34:59;;;;;;;;;;;;;;;7.83;60.34;101307.72;6111008;23;7913;-76
2022/03/16 01:37:25;;;;;;;;;;;;;;;7.84;60.45;101309.47;6111424;23;7316;-76
2022/03/16 01:39:51;;;;;;;;;;;;;;;7.81;60.11;101308.34;6110462;23;7038;-76
2022/03/16 01:42:16;;;;;;;;;;;;;;;7.82;59.49;101315.25;6110660;23;6944;-76
2022/03/16 01:44:47;;;;;;;;;;;;;;;7.78;59.99;101304.81;6111601;23;7851;-77
2022/03/16 01:47:19;;;;;;;;;;;;;;;7.77;59.72;101304.69;6110071;23;7096;-78
2022/03/16 01:49:46;;;;;;;;;;;;;;;7.74;59.57;101319.78;6111326;23;6883;-78
2022/03/16 01:52:19;;;;;;;;;;;;;;;7.70;59.87;101313.56;6108773;23;6807;-78
2022/03/16 01:54:45;;;;;;;;;;;;;;;7.64;59.70;101311.44;6111607;23;6962;-78
2022/03/16 01:57:13;;;;;;;;;;;;;;;7.61;59.01;101311.19;6111752;23;6924;-78
2022/03/16 01:59:40;;;;;;;;;;;;;;;7.57;59.40;101304.09;6111968;23;6787;-78
2022/03/16 02:02:06;;;;;;;;;;;;;;;7.54;59.34;101311.53;6086540;23;6783;-78
2022/03/16 02:04:33;;;;;;;;;;;;;;;7.53;59.72;101313.97;6086214;23;6783;-78
2022/03/16 02:06:59;;;;;;;;;;;;;;;7.52;60.11;101307.09;6136127;23;7021;-78
2022/03/16 02:09:26;;;;;;;;;;;;;;;7.50;59.85;101305.31;6109455;23;8054;-78
2022/03/16 02:11:52;;;;;;;;;;;;;;;7.51;60.24;101303.63;6109446;23;6790;-78
2022/03/16 02:14:18;;;;;;;;;;;;;;;7.49;59.51;101302.63;6111022;23;6968;-78
2022/03/16 02:16:48;;;;;;;;;;;;;;;7.49;59.94;101302.63;6109133;23;6775;-78
2022/03/16 02:19:14;;;;;;;;;;;;;;;7.45;59.83;101295.53;6111577;23;6833;-78
2022/03/16 02:21:41;;;;;;;;;;;;;;;7.43;59.75;101302.16;6111077;23;6953;-79
2022/03/16 02:24:08;;;;;;;;;;;;;;;7.42;60.22;101305.50;6111584;23;6941;-79
2022/03/16 02:26:35;;;;;;;;;;;;;;;7.40;59.59;101305.41;6110516;23;6783;-78
2022/03/16 02:29:01;;;;;;;;;;;;;;;7.40;60.39;101307.03;6110346;23;7216;-78
2022/03/16 02:31:27;;;;;;;;;;;;;;;7.38;59.46;101306.03;6111166;23;6775;-79
2022/03/16 02:33:53;;;;;;;;;;;;;;;7.37;59.93;101307.69;6135145;23;7208;-78
2022/03/16 02:36:19;;;;;;;;;;;;;;;7.35;59.91;101306.69;6111351;23;6900;-78
2022/03/16 02:38:46;;;;;;;;;;;;;;;7.33;59.77;101306.56;6109640;23;7036;-78
2022/03/16 02:41:12;;;;;;;;;;;;;;;7.32;59.47;101302.25;6087336;23;6867;-78
2022/03/16 02:43:39;;;;;;;;;;;;;;;7.31;60.17;101302.16;6108714;23;6923;-78
2022/03/16 02:46:05;;;;;;;;;;;;;;;7.30;60.40;101305.47;6111931;23;6786;-78
2022/03/16 02:48:31;;;;;;;;;;;;;;;7.27;60.09;101303.56;6109653;23;6787;-78
2022/03/16 02:50:57;;;;;;;;;;;;;;;7.25;59.98;101299.13;6134154;23;6957;-78
2022/03/16 02:53:22;;;;;;;;;;;;;;;7.25;59.68;101306.78;6109299;23;6778;-79
2022/03/16 02:55:49;;;;;;;;;;;;;;;7.24;60.33;101310.97;6112041;23;7011;-78
2022/03/16 02:58:16;;;;;;;;;;;;;;;7.25;59.82;101312.78;6111334;23;7171;-78
2022/03/16 03:00:43;;;;;;;;;;;;;;;7.25;59.92;101316.97;6110213;23;6994;-78
2022/03/16 03:03:09;;;;;;;;;;;;;;;7.25;59.79;101310.22;6115694;23;6959;-78
2022/03/16 03:05:35;;;;;;;;;;;;;;;7.25;60.07;101307.69;6117456;23;6795;-78
2022/03/16 03:08:01;;;;;;;;;;;;;;;7.28;60.52;101317.19;6116574;23;6816;-78
2022/03/16 03:10:27;;;;;;;;;;;;;;;7.29;59.92;101309.69;6091804;23;7173;-78
2022/03/16 03:12:53;;;;;;;;;;;;;;;7.29;60.46;101309.69;6116196;23;6778;-78
2022/03/16 03:15:19;;;;;;;;;;;;;;;7.30;60.55;101319.09;6117207;23;6938;-78
2022/03/16 03:17:45;;;;;;;;;;;;;;;7.29;59.62;101303.66;6115390;23;7700;-79
2022/03/16 03:20:12;;;;;;;;;;;;;;;7.31;59.78;101312.34;6116448;23;6808;-78
2022/03/16 03:22:40;;;;;;;;;;;;;;;7.32;60.61;101311.56;6115888;23;6859;-78
2022/03/16 03:25:11;;;;;;;;;;;;;;;7.33;60.52;101306.56;6117916;23;6933;-79
2022/03/16 03:27:37;;;;;;;;;;;;;;;7.35;60.76;101309.25;6090628;23;7086;-79
2022/03/16 03:30:05;;;;;;;;;;;;;;;7.36;60.75;101299.16;6090350;23;6971;-79
2022/03/16 03:32:31;;;;;;;;;;;;;;;7.37;60.93;101297.50;6091234;23;6939;-78
2022/03/16 03:34:56;;;;;;;;;;;;;;;7.41;60.42;101288.41;6115776;23;6770;-78
2022/03/16 03:37:25;;;;;;;;;;;;;;;7.43;60.42;101291.97;6118350;23;6754;-78
2022/03/16 03:39:52;;;;;;;;;;;;;;;7.46;61.01;101292.22;6114422;23;6775;-78
2022/03/16 03:42:18;;;;;;;;;;;;;;;7.48;60.35;101295.75;6113923;23;6771;-78
2022/03/16 03:44:44;;;;;;;;;;;;;;;7.50;61.19;101286.56;6116838;23;6982;-78
2022/03/16 03:47:10;;;;;;;;;;;;;;;7.51;61.26;101283.22;6116463;23;6771;-78
2022/03/16 03:49:39;;;;;;;;;;;;;;;7.53;60.57;101279.13;6116346;23;6933;-78
2022/03/16 03:52:07;;;;;;;;;;;;;;;7.54;61.32;101291.13;6115233;23;6991;-78
2022/03/16 03:54:33;;;;;;;;;;;;;;;7.56;60.52;101284.47;6091824;23;6783;-78
2022/03/16 03:57:00;;;;;;;;;;;;;;;7.58;60.64;101284.56;6119684;23;6938;-78
2022/03/16 03:59:25;;;;;;;;;;;;;;;7.59;60.28;101292.34;6117101;23;6778;-77
2022/03/16 04:01:52;;;;;;;;;;;;;;;7.59;61.26;101289.78;6113802;23;6782;-78
2022/03/16 04:04:18;;;;;;;;;;;;;;;7.60;60.52;101283.91;6112094;23;6842;-78
2022/03/16 04:06:44;;;;;;;;;;;;;;;7.61;61.32;101285.69;6112977;23;6970;-78
2022/03/16 04:09:11;;;;;;;;;;;;;;;7.62;61.31;101284.91;6111193;23;6970;-78
2022/03/16 04:11:37;;;;;;;;;;;;;;;7.62;60.78;101281.47;6111154;23;6954;-78
2022/03/16 04:14:04;;;;;;;;;;;;;;;7.62;60.82;101287.44;6087602;23;6866;-78
2022/03/16 04:16:30;;;;;;;;;;;;;;;7.63;60.33;101285.81;6112940;23;6790;-78
2022/03/16 04:18:55;;;;;;;;;;;;;;;7.63;61.04;101289.25;6112239;23;6948;-79
2022/03/16 04:21:22;;;;;;;;;;;;;;;7.64;61.14;101283.38;6086197;23;7762;-79
2022/03/16 04:23:49;;;;;;;;;;;;;;;7.64;61.17;101280.81;6137540;23;6778;-79
2022/03/16 04:26:16;;;;;;;;;;;;;;;7.65;61.15;101284.25;6113443;23;6794;-79
2022/03/16 04:28:41;;;;;;;;;;;;;;;7.63;60.60;101276.50;6107302;23;7304;-78
2022/03/16 04:31:08;;;;;;;;;;;;;;;7.65;60.79;101284.25;6109318;23;7025;-79
2022/03/16 04:33:34;;;;;;;;;;;;;;;7.64;60.37;101277.38;6111511;23;6779;-78
2022/03/16 04:36:00;;;;;;;;;;;;;;;7.62;60.78;101278.94;6088580;23;6946;-78
2022/03/16 04:38:26;;;;;;;;;;;;;;;7.60;61.07;101280.50;6137659;23;6920;-78
2022/03/16 04:40:52;;;;;;;;;;;;;;;7.58;61.09;101292.22;6085526;23;7993;-78
2022/03/16 04:43:18;;;;;;;;;;;;;;;7.55;61.25;101287.78;6111220;23;6830;-78
2022/03/16 04:45:43;;;;;;;;;;;;;;;7.54;60.51;101286.03;6112644;23;7000;-78
2022/03/16 04:48:11;;;;;;;;;;;;;;;7.55;60.62;101289.44;6114055;23;6778;-78
2022/03/16 04:50:39;;;;;;;;;;;;;;;7.54;61.00;101288.56;6110854;23;7967;-78
2022/03/16 04:53:05;;;;;;;;;;;;;;;7.52;60.23;101282.44;6110994;23;7277;-78
2022/03/16 04:55:32;;;;;;;;;;;;;;;7.53;61.31;101281.66;6114919;23;6936;-78
2022/03/16 04:58:00;;;;;;;;;;;;;;;7.53;61.06;101278.25;6112614;23;6794;-79
2022/03/16 05:00:26;;;;;;;;;;;;;;;7.52;61.15;101269.69;6113287;23;6851;-79
2022/03/16 05:02:51;;;;;;;;;;;;;;;7.50;61.02;101271.25;6108204;23;6795;-79
2022/03/16 05:05:17;;;;;;;;;;;;;;;7.50;60.74;101278.91;6106169;23;6939;-79
2022/03/16 05:07:43;;;;;;;;;;;;;;;7.46;60.49;101277.78;6111318;23;7140;-78
2022/03/16 05:10:09;;;;;;;;;;;;;;;7.45;61.31;101276.00;6110660;23;6770;-78
2022/03/16 05:12:40;;;;;;;;;;;;;;;7.44;60.53;101281.88;6112012;23;6783;-78
2022/03/16 05:15:18;;;;;;;;;;;;;;;7.42;60.73;101290.19;6083647;23;7633;-78
2022/03/16 05:17:45;;;;;;;;;;;;;;;7.41;61.03;101281.66;6109714;23;7219;-78
2022/03/16 05:20:13;;;;;;;;;;;;;;;7.41;60.73;101290.97;6112836;23;6854;-78
2022/03/16 05:22:45;;;;;;;;;;;;;;;7.40;60.56;101279.00;6111643;23;6958;-77
2022/03/16 05:25:15;;;;;;;;;;;;;;;7.36;60.89;101276.22;6113865;23;6790;-76
2022/03/16 05:27:41;;;;;;;;;;;;;;;7.37;61.23;101289.84;6112313;23;7087;-76
2022/03/16 05:30:09;;;;;;;;;;;;;;;7.36;61.29;101281.31;6111899;23;6774;-76
2022/03/16 05:32:36;;;;;;;;;;;;;;;7.34;61.05;101276.88;6112477;23;6976;-76
2022/03/16 05:35:03;;;;;;;;;;;;;;;7.34;61.06;101276.88;6112854;23;6783;-76
2022/03/16 05:37:29;;;;;;;;;;;;;;;7.33;60.72;101270.88;6111051;23;7852;-77
2022/03/16 05:39:54;;;;;;;;;;;;;;;7.30;60.68;101275.75;6112829;23;6849;-76
2022/03/16 05:42:20;;;;;;;;;;;;;;;7.29;61.00;101284.16;6136537;23;6907;-76
2022/03/16 05:44:46;;;;;;;;;;;;;;;7.28;61.15;101284.03;6112102;23;6971;-76
2022/03/16 05:47:11;;;;;;;;;;;;;;;7.23;60.71;101279.50;6112335;23;6806;-76
2022/03/16 05:49:38;;;;;;;;;;;;;;;7.22;60.94;101279.38;6113368;23;6975;-76
2022/03/16 05:52:05;;;;;;;;;;;;;;;7.21;60.35;101282.69;6109703;23;6783;-76
2022/03/16 05:54:31;;;;;;;;;;;;;;;7.19;60.28;101282.56;6104124;23;7209;-77
2022/03/16 05:56:57;;;;;;;;;;;;;;;7.15;61.00;101278.03;6110899;23;7046;-77
2022/03/16 05:59:22;;;;;;;;;;;;;;;7.15;60.38;101282.25;6112330;23;6803;-77
2022/03/16 06:01:48;;;;;;;;;;;;;;;7.13;60.59;101271.03;6111121;23;6782;-77
2022/03/16 06:04:14;;;;;;;;;;;;;;;7.13;60.80;101276.13;6111665;23;6913;-77
2022/03/16 06:06:39;;;;;;;;;;;;;;;7.14;60.87;101272.78;6111565;23;8063;-77
2022/03/16 06:09:05;;;;;;;;;;;;;;;7.16;61.54;101277.25;6110627;23;6783;-76
2022/03/16 06:11:31;;;;;;;;;;;;;;;7.18;61.27;101280.78;6110813;23;6842;-76
2022/03/16 06:13:56;;;;;;;;;;;;;;;7.19;61.46;101277.47;6087560;23;7330;-76
2022/03/16 06:16:22;;;;;;;;;;;;;;;7.23;61.48;101281.16;6110341;23;6779;-76
2022/03/16 06:18:48;;;;;;;;;;;;;;;7.27;61.31;101282.28;6112403;23;6786;-76
2022/03/16 06:21:14;;;;;;;;;;;;;;;7.31;61.33;101281.75;6135303;23;6866;-76
2022/03/16 06:23:40;;;;;;;;;;;;;;;7.35;61.21;101276.09;6085960;23;7042;-76
2022/03/16 06:26:06;;;;;;;;;;;;;;;7.40;61.97;101285.00;6112576;23;6849;-76
2022/03/16 06:28:32;;;;;;;;;;;;;;;7.44;61.02;101279.31;6087038;23;7365;-76
2022/03/16 06:30:58;;;;;;;;;;;;;;;7.50;61.48;101282.34;6109415;23;6857;-76
2022/03/16 06:33:24;;;;;;;;;;;;;;;7.56;62.04;101279.38;6109050;23;6863;-76
2022/03/16 06:35:49;;;;;;;;;;;;;;;7.63;61.43;101267.94;6109761;23;6862;-76
2022/03/16 06:38:15;;;;;;;;;;;;;;;7.70;61.78;101272.72;6112425;23;6806;-76
2022/03/16 06:40:41;;;;;;;;;;;;;;;7.78;61.90;101271.63;6113740;23;6920;-76
2022/03/16 06:43:07;;;;;;;;;;;;;;;7.87;62.50;101271.41;6087865;23;6930;-76
2022/03/16 06:45:33;;;;;;;;;;;;;;;7.97;62.11;101272.97;6113666;23;7142;-76
2022/03/16 06:48:01;;;;;;;;;;;;;;;8.08;61.53;101281.41;6113571;23;7004;-76
2022/03/16 06:50:28;;;;;;;;;;;;;;;8.18;61.85;101276.16;6112265;23;7015;-76
2022/03/16 06:52:54;;;;;;;;;;;;;;;8.29;61.68;101278.59;6111727;23;7074;-76
2022/03/16 06:55:20;;;;;;;;;;;;;;;8.38;62.13;101280.94;6113217;23;6874;-76
2022/03/16 06:57:46;;;;;;;;;;;;;;;8.44;62.04;101286.47;6114039;23;6945;-76
2022/03/16 07:00:14;;;;;;;;;;;;;;;8.48;62.19;101279.13;6090527;23;7130;-76
2022/03/16 07:02:55;;;;;;;;;;;;;;;8.56;62.54;101291.59;6114263;23;7053;-77
2022/03/16 07:05:26;;;;;;;;;;;;;;;8.62;62.60;101286.94;6114200;23;6883;-77
2022/03/16 07:07:54;;;;;;;;;;;;;;;8.68;61.32;101287.34;6114533;23;6783;-77
2022/03/16 07:10:20;;;;;;;;;;;;;;;8.77;61.59;101288.75;6113843;23;6787;-77
2022/03/16 07:12:45;;;;;;;;;;;;;;;8.85;62.17;101291.09;6088934;23;7798;-77
2022/03/16 07:15:11;;;;;;;;;;;;;;;8.95;61.75;101290.03;6116521;23;7513;-77
2022/03/16 07:17:37;;;;;;;;;;;;;;;9.03;61.70;101286.34;6089356;23;7019;-76
2022/03/16 07:20:06;;;;;;;;;;;;;;;9.14;62.14;101291.28;6114786;23;6999;-76
2022/03/16 07:22:32;;;;;;;;;;;;;;;9.23;61.45;101289.38;6087678;23;6787;-76
2022/03/16 07:24:58;;;;;;;;;;;;;;;9.33;62.20;101297.66;6115503;23;6779;-76
2022/03/16 07:27:24;;;;;;;;;;;;;;;9.40;61.73;101287.06;6135697;23;6767;-76
2022/03/16 07:29:50;;;;;;;;;;;;;;;9.48;62.28;101290.13;6111874;23;6782;-76
2022/03/16 07:32:15;;;;;;;;;;;;;;;9.54;61.92;101270.94;6087633;23;6875;-76
2022/03/16 07:34:41;;;;;;;;;;;;;;;9.62;61.23;101276.59;6113989;23;6842;-76
2022/03/16 07:37:07;;;;;;;;;;;;;;;9.69;61.29;101271.06;6088717;23;6949;-76
2022/03/16 07:39:32;;;;;;;;;;;;;;;9.78;61.79;101275.00;6066261;23;6894;-77
2022/03/16 07:41:58;;;;;;;;;;;;;;;9.86;61.31;101279.88;6110635;23;6771;-77
2022/03/16 07:44:24;;;;;;;;;;;;;;;9.94;61.75;101277.78;6113385;23;6926;-77
2022/03/16 07:46:50;;;;;;;;;;;;;;;10.00;61.44;101275.63;6114310;23;6940;-77
2022/03/16 07:49:16;;;;;;;;;;;;;;;10.07;61.09;101274.34;6112814;23;6766;-77
2022/03/16 07:51:41;;;;;;;;;;;;;;;10.14;60.86;101273.06;6113715;23;7092;-77
2022/03/16 07:54:07;;;;;;;;;;;;;;;10.22;60.64;101273.53;6113432;23;7251;-77
2022/03/16 07:56:33;;;;;;;;;;;;;;;10.31;60.88;101268.13;6114019;23;7282;-77
2022/03/16 07:59:01;;;;;;;;;;;;;;;10.38;60.69;101260.91;6114121;23;6774;-77
2022/03/16 08:01:27;;;;;;;;;;;;;;;10.46;60.64;101263.09;6111006;23;6866;-76
2022/03/16 08:03:54;;;;;;;;;;;;;;;10.54;60.80;101256.78;6113928;23;8696;-76
2022/03/16 08:06:20;;;;;;;;;;;;;;;10.60;60.47;101261.41;6112579;23;7170;-76
2022/03/16 08:08:46;;;;;;;;;;;;;;;10.64;60.44;101254.00;6113200;23;6960;-76
2022/03/16 08:11:11;;;;;;;;;;;;;;;10.75;59.80;101266.56;6086374;23;6759;-76
2022/03/16 08:13:37;;;;;;;;;;;;;;;10.83;60.31;101276.50;6112748;23;6901;-76
2022/03/16 08:16:04;;;;;;;;;;;;;;;10.92;60.01;101267.59;6112989;23;6954;-76
2022/03/16 08:18:31;;;;;;;;;;;;;;;11.01;59.58;101264.69;6113225;23;6787;-76
2022/03/16 08:20:57;;;;;;;;;;;;;;;11.09;59.91;101260.91;6114786;23;6790;-76
2022/03/16 08:23:24;;;;;;;;;;;;;;;11.19;59.53;101260.66;6136880;23;8667;-76
2022/03/16 08:25:50;;;;;;;;;;;;;;;11.29;59.64;101248.38;6107989;23;6959;-77
2022/03/16 08:28:16;;;;;;;;;;;;;;;11.40;59.31;101247.34;6112227;23;6783;-76
2022/03/16 08:30:42;;;;;;;;;;;;;;;11.49;58.99;101246.97;6111185;23;6782;-76
2022/03/16 08:33:08;;;;;;;;;;;;;;;11.61;59.40;101241.66;6112960;23;7027;-76
2022/03/16 08:35:33;;;;;;;;;;;;;;;11.72;58.97;101243.16;6111331;23;6825;-76
2022/03/16 08:37:59;;;;;;;;;;;;;;;11.80;58.39;101246.16;6111409;23;6771;-76
2022/03/16 08:40:25;;;;;;;;;;;;;;;11.89;58.04;101258.66;6114435;23;6824;-76
2022/03/16 08:42:52;;;;;;;;;;;;;;;11.97;57.97;101259.94;6108674;23;6989;-77
2022/03/16 08:45:19;;;;;;;;;;;;;;;12.07;57.92;101259.72;6111420;23;6862;-77
2022/03/16 08:47:45;;;;;;;;;;;;;;;12.15;57.86;101256.66;6112052;23;6779;-77
2022/03/16 08:50:11;;;;;;;;;;;;;;;12.24;57.92;101256.28;6113363;23;6770;-77
2022/03/16 08:52:37;;;;;;;;;;;;;;;12.30;57.62;101260.09;6110816;23;7438;-77
2022/03/16 08:55:05;;;;;;;;;;;;;;;12.35;56.69;101258.63;6083398;23;7979;-76
2022/03/16 08:57:32;;;;;;;;;;;;;;;12.43;57.58;101253.03;6136323;23;6985;-76
2022/03/16 08:59:57;;;;;;;;;;;;;;;12.51;57.45;101262.03;6112228;23;6950;-76
2022/03/16 09:02:23;;;;;;;;;;;;;;;12.62;56.73;101260.94;6113713;23;6770;-76
2022/03/16 09:04:50;;;;;;;;;;;;;;;12.74;57.51;101252.09;6110119;23;7191;-76
2022/03/16 09:07:16;;;;;;;;;;;;;;;12.84;56.22;101244.03;6110896;23;6846;-77
2022/03/16 09:09:42;;;;;;;;;;;;;;;12.96;56.29;101250.66;6110630;23;6944;-77
2022/03/16 09:12:09;;;;;;;;;;;;;;;13.02;55.84;101244.13;6086775;23;6925;-77
2022/03/16 09:14:35;;;;;;;;;;;;;;;13.11;56.10;101236.00;6112565;23;7003;-77
2022/03/16 09:17:00;;;;;;;;;;;;;;;13.23;56.12;101232.25;6089248;23;6786;-77
2022/03/16 09:19:26;;;;;;;;;;;;;;;13.32;56.08;101243.03;6112825;23;6878;-77
2022/03/16 09:21:52;;;;;;;;;;;;;;;13.42;55.94;101239.22;6110564;23;7155;-77
2022/03/16 09:24:18;;;;;;;;;;;;;;;13.51;55.46;101231.09;6111831;23;6918;-77
2022/03/16 09:26:45;;;;;;;;;;;;;;;13.61;55.24;101236.78;6112567;23;7057;-77
2022/03/16 09:29:12;;;;;;;;;;;;;;;13.73;54.80;101235.63;6110908;23;6866;-77
2022/03/16 09:31:40;;;;;;;;;;;;;;;13.84;55.35;101238.72;6136626;23;6778;-77
2022/03/16 09:34:07;;;;;;;;;;;;;;;13.95;54.34;101237.53;6112825;23;7133;-76
2022/03/16 09:36:34;;;;;;;;;;;;;;;14.05;55.20;101236.28;6110798;23;6778;-76
2022/03/16 09:39:00;;;;;;;;;;;;;;;14.16;53.89;101227.34;6112956;23;6867;-76
2022/03/16 09:41:26;;;;;;;;;;;;;;;14.28;54.64;101228.72;6110205;23;6778;-76
2022/03/16 09:43:54;;;;;;;;;;;;;;;14.38;54.43;101215.44;6112489;23;8005;-76
2022/03/16 09:46:31;;;;;;;;;;;;;;;14.50;53.54;101222.88;6112535;23;6791;-76
2022/03/16 09:48:57;;;;;;;;;;;;;;;14.62;53.64;101226.81;6112717;23;6783;-76
2022/03/16 09:51:25;;;;;;;;;;;;;;;14.71;53.34;101228.06;6111609;23;7171;-76
2022/03/16 09:53:52;;;;;;;;;;;;;;;14.82;52.55;101223.44;6110602;23;7010;-76
2022/03/16 09:56:20;;;;;;;;;;;;;;;14.96;53.38;101234.34;6088437;23;7066;-76
2022/03/16 09:58:46;;;;;;;;;;;;;;;15.12;52.41;101228.16;6110136;23;6953;-76
2022/03/16 10:01:19;;;;;;;;;;;;;;;15.30;52.18;101227.16;6111261;23;6986;-77
2022/03/16 10:03:54;;;;;;;;;;;;;;;15.49;51.97;101222.75;6112117;23;6986;-77
2022/03/16 10:06:24;;;;;;;;;;;;;;;15.66;51.92;101229.50;6136914;23;6783;-77
2022/03/16 10:14:20;;;;;;;;;;;;;;;16.14;51.43;101212.41;6113334;23;7513;-77
2022/03/16 10:19:52;;;;;;;;;;;;;;;16.58;50.72;101201.06;6110753;23;7388;-77
2022/03/16 10:22:30;;;;;;;;;;;;;;;16.78;50.03;101210.41;6110598;23;7024;-77
2022/03/16 10:25:03;;;;;;;;;;;;;;;16.95;49.83;101197.19;6087384;23;6956;-77
2022/03/16 10:27:30;;;;;;;;;;;;;;;17.14;49.44;101210.81;6110954;23;7015;-77
2022/03/16 10:29:57;;;;;;;;;;;;;;;17.49;49.44;101211.09;6112115;23;6779;-77
2022/03/16 10:32:23;;;;;;;;;;;;;;;18.03;48.72;101211.88;6110217;23;6975;-77
2022/03/16 10:34:52;;;;;;;;;;;;;;;18.56;47.56;101195.28;6109925;23;7219;-77
2022/03/16 10:37:21;;;;;;;;;;;;;;;19.07;46.91;101190.59;6136233;23;6971;-77
2022/03/16 10:39:50;;;;;;;;;;;;;;;19.61;46.15;101188.44;6107792;23;6779;-77
2022/03/16 10:48:16;;;;;;;;;;;;;;;20.76;43.88;101173.47;6114997;23;6858;-77
2022/03/16 10:50:46;;;;;;;;;;;;;;;20.99;43.10;101177.38;6111480;23;6931;-77
2022/03/16 10:53:16;;;;;;;;;;;;;;;21.03;42.91;101192.19;6135991;23;6862;-77
2022/03/16 10:55:44;;;;;;;;;;;;;;;20.86;42.67;101189.28;6110766;23;6779;-76
2022/03/16 10:58:12;;;;;;;;;;;;;;;20.62;42.68;101193.19;6111947;23;7038;-77
2022/03/16 11:00:40;;;;;;;;;;;;;;;20.48;42.89;101185.09;6110949;23;6783;-76
2022/03/16 11:03:09;;;;;;;;;;;;;;;20.44;42.79;101181.56;6110352;23;7476;-76
2022/03/16 11:05:36;;;;;;;;;;;;;;;20.48;42.69;101185.09;6109321;23;6934;-77
2022/03/16 11:08:07;;;;;;;;;;;;;;;20.47;42.85;101189.41;6112408;23;7010;-77
2022/03/16 11:10:41;;;;;;;;;;;;;;;20.49;42.91;101192.06;6110296;23;6786;-77
2022/03/16 11:15:56;;;;;;;;;;;;;;;20.45;42.55;101179.81;6113664;23;6867;-77
2022/03/16 11:18:23;;;;;;;;;;;;;;;20.36;42.58;101186.59;6111113;23;6994;-77
2022/03/16 11:21:15;;;;;;;;;;;;;;;20.36;42.79;101176.16;6111081;23;7031;-77
2022/03/16 11:27:10;;;;;;;;;;;;;;;20.47;42.62;101173.78;6115114;23;6863;-77
2022/03/16 11:30:05;;;;;;;;;;;;;;;20.49;42.17;101171.22;6051068;23;7306;-77
2022/03/16 11:32:40;;;;;;;;;;;;;;;20.54;41.73;101174.78;6112063;23;6775;-77
2022/03/16 11:35:15;;;;;;;;;;;;;;;20.73;42.17;101168.22;6113182;23;6986;-77
2022/03/16 11:37:49;;;;;;;;;;;;;;;21.03;42.00;101171.34;6112871;23;6775;-77
2022/03/16 11:40:23;;;;;;;;;;;;;;;21.29;41.47;101166.53;6111789;23;6775;-76
2022/03/16 11:43:04;;;;;;;;;;;;;;;21.60;40.91;101167.03;6088189;23;6970;-76
2022/03/16 11:45:38;;;;;;;;;;;;;;;21.80;40.93;101166.47;6113338;23;6783;-75
2022/03/16 11:48:40;;;;;;;;;;;;;;;22.01;40.54;101167.59;6112036;23;7243;-76
2022/03/16 11:51:09;;;;;;;;;;;;;;;22.13;40.41;101156.44;6000138;23;6935;-76
2022/03/16 11:56:29;;;;;;;;;;;;;;;22.23;39.49;101155.69;6114790;23;6954;-76
2022/03/16 11:59:09;;;;;;;;;;;;;;;22.22;39.29;101151.34;6113090;23;7110;-76
2022/03/16 12:01:37;;;;;;;;;;;;;;;22.19;39.53;101151.28;6113080;23;6783;-78
2022/03/16 12:04:15;;;;;;;;;;;;;;;22.16;39.39;101143.44;6112641;23;6806;-78
2022/03/16 12:07:08;;;;;;;;;;;;;;;22.21;39.37;101144.34;6112198;23;6863;-77
2022/03/16 12:09:41;;;;;;;;;;;;;;;22.37;39.57;101131.47;6112516;23;7276;-77
2022/03/16 12:15:11;;;;;;;;;;;;;;;22.63;38.86;101134.38;6112769;23;6783;-77
2022/03/16 12:18:02;;;;;;;;;;;;;;;22.63;38.06;101130.91;6111326;23;7127;-77
2022/03/16 12:20:35;;;;;;;;;;;;;;;22.42;38.54;101117.59;6117402;23;6791;-77
2022/03/16 12:23:10;;;;;;;;;;;;;;;22.12;38.19;101124.25;6112003;23;7239;-77
2022/03/16 12:25:39;;;;;;;;;;;;;;;21.77;38.74;101119.44;6112365;23;6790;-77
2022/03/16 12:31:04;;;;;;;;;;;;;;;21.16;39.13;101123.78;6131667;23;6950;-78
2022/03/16 12:33:39;;;;;;;;;;;;;;;20.95;39.55;101117.34;6114194;23;6790;-77
2022/03/16 12:36:13;;;;;;;;;;;;;;;20.78;39.44;101109.25;6112924;23;8076;-77
2022/03/16 12:38:51;;;;;;;;;;;;;;;20.64;39.60;101113.34;6089891;23;7119;-77
2022/03/16 12:44:12;;;;;;;;;;;;;;;20.42;39.92;101101.66;6113142;23;6954;-77
2022/03/16 12:47:00;;;;;;;;;;;;;;;20.34;40.12;101097.19;6110368;23;6916;-77
2022/03/16 12:49:26;;;;;;;;;;;;;;;20.30;40.11;101110.09;6112067;23;6953;-77
2022/03/16 12:51:56;;;;;;;;;;;;;;;20.25;40.20;101107.41;6087301;23;6794;-77
2022/03/16 12:54:31;;;;;;;;;;;;;;;20.22;40.50;101107.38;6110209;23;6867;-77
2022/03/16 12:57:09;;;;;;;;;;;;;;;20.17;40.77;101107.28;6135261;23;6914;-77
2022/03/16 12:59:47;;;;;;;;;;;;;;;20.14;40.49;101101.13;6111327;23;6885;-77
2022/03/16 13:02:13;;;;;;;;;;;;;;;20.07;40.48;101095.78;6113564;23;6786;-77
2022/03/16 13:04:40;;;;;;;;;;;;;;;20.02;40.32;101097.44;6135841;23;6783;-77
2022/03/16 13:07:07;;;;;;;;;;;;;;;19.95;40.76;101092.97;6088744;23;6783;-77
2022/03/16 13:09:38;;;;;;;;;;;;;;;19.90;40.96;101098.03;6112125;23;7169;-77
2022/03/16 13:12:11;;;;;;;;;;;;;;;19.84;40.31;101097.88;6110526;23;6978;-77
2022/03/16 13:14:44;;;;;;;;;;;;;;;19.75;40.17;101096.00;6112487;23;7258;-77
2022/03/16 13:17:13;;;;;;;;;;;;;;;19.66;40.89;101095.78;6112146;23;6986;-77
2022/03/16 13:19:44;;;;;;;;;;;;;;;19.54;40.27;101088.59;6110727;23;6970;-78
2022/03/16 13:22:22;;;;;;;;;;;;;;;19.44;40.50;101090.13;6110716;23;7170;-77
2022/03/16 13:24:57;;;;;;;;;;;;;;;19.36;40.90;101095.16;6111793;23;6774;-77
2022/03/16 13:27:39;;;;;;;;;;;;;;;19.29;40.96;101094.13;6111869;23;6782;-77
2022/03/16 13:30:11;;;;;;;;;;;;;;;19.24;40.92;101095.75;6113591;23;7022;-77